| time (UTC) | temp F | wind direction | speed MPH | gust MPH | rain 1hr in | rain 24hr in | rain mn in | humidity % | barometer mb |
| 20260510190255 | 59 | 206 | 8.0 | 14.0 | 0.00 | 0.08 | 0.08 | 74 | 1011.4 |
| 20260510185751 | 58 | 232 | 4.0 | 4.0 | 0.00 | 0.08 | 0.08 | 73 | 1011.7 |
| 20260510185249 | 58 | 217 | 9.0 | 11.0 | 0.00 | 0.08 | 0.08 | 73 | 1011.7 |
| 20260510184746 | 58 | 231 | 14.0 | 17.0 | 0.00 | 0.08 | 0.08 | 74 | 1011.7 |
| 20260510184243 | 57 | 219 | 4.0 | 6.0 | 0.00 | 0.08 | 0.08 | 78 | 1011.7 |
| 20260510183737 | 57 | 167 | 6.0 | 7.0 | 0.00 | 0.08 | 0.08 | 78 | 1011.7 |
| 20260510183232 | 57 | 212 | 8.0 | 9.0 | 0.00 | 0.08 | 0.08 | 79 | 1011.7 |
| 20260510182729 | 56 | 195 | 4.0 | 6.0 | 0.00 | 0.08 | 0.08 | 80 | 1011.7 |
| 20260510182225 | 56 | 227 | 5.0 | 7.0 | 0.00 | 0.08 | 0.08 | 80 | 1011.7 |
| 20260510181722 | 56 | 201 | 4.0 | 6.0 | 0.00 | 0.08 | 0.08 | 80 | 1012.0 |
| 20260510181219 | 55 | 236 | 6.0 | 9.0 | 0.00 | 0.08 | 0.08 | 80 | 1011.7 |
| 20260510180715 | 56 | 253 | 5.0 | 6.0 | 0.00 | 0.08 | 0.08 | 81 | 1011.7 |
| 20260510180213 | 56 | 214 | 4.0 | 7.0 | 0.00 | 0.08 | 0.08 | 81 | 1011.7 |
| 20260510175708 | 56 | 228 | 8.0 | 13.0 | 0.00 | 0.08 | 0.08 | 81 | 1011.7 |
| 20260510175204 | 56 | 185 | 3.0 | 4.0 | 0.00 | 0.08 | 0.08 | 81 | 1011.7 |
| 20260510174702 | 55 | 207 | 7.0 | 9.0 | 0.00 | 0.08 | 0.08 | 81 | 1011.7 |
| 20260510174159 | 55 | 213 | 4.0 | 7.0 | 0.00 | 0.08 | 0.08 | 82 | 1011.7 |
| 20260510173655 | 55 | 279 | 6.0 | 7.0 | 0.00 | 0.08 | 0.08 | 83 | 1011.7 |
| 20260510173151 | 55 | 214 | 9.0 | 11.0 | 0.00 | 0.08 | 0.08 | 83 | 1011.7 |
| 20260510172646 | 55 | 226 | 6.0 | 7.0 | 0.00 | 0.08 | 0.08 | 82 | 1011.7 |
| 20260510172143 | 55 | 215 | 6.0 | 6.0 | 0.00 | 0.08 | 0.08 | 83 | 1011.4 |
| 20260510171640 | 56 | 175 | 3.0 | 3.0 | 0.00 | 0.08 | 0.08 | 87 | 1011.7 |
| 20260510171137 | 56 | 198 | 3.0 | 3.0 | 0.00 | 0.08 | 0.08 | 87 | 1011.7 |
| 20260510170633 | 55 | 161 | 2.0 | 3.0 | 0.00 | 0.08 | 0.08 | 87 | 1011.7 |
| 20260510170130 | 55 | 205 | 4.0 | 4.0 | 0.00 | 0.08 | 0.08 | 86 | 1011.7 |
| 20260510165626 | 56 | 170 | 2.0 | 2.0 | 0.00 | 0.08 | 0.08 | 88 | 1011.7 |
| 20260510165122 | 55 | 172 | 1.0 | 1.0 | 0.00 | 0.08 | 0.08 | 91 | 1011.7 |
| 20260510164620 | 53 | 201 | 1.0 | 1.0 | 0.00 | 0.08 | 0.08 | 92 | 1011.7 |
| 20260510164116 | 52 | 190 | 1.0 | 1.0 | 0.00 | 0.08 | 0.08 | 92 | 1011.7 |
| 20260510163611 | 52 | 185 | 2.0 | 2.0 | 0.00 | 0.08 | 0.08 | 92 | 1011.7 |
| 20260510163108 | 52 | 185 | 3.0 | 4.0 | 0.00 | 0.08 | 0.08 | 92 | 1011.7 |
| 20260510162602 | 52 | 188 | 1.0 | 2.0 | 0.05 | 0.08 | 0.08 | 93 | 1011.7 |
| 20260510162059 | 51 | 222 | 1.0 | 2.0 | 0.12 | 0.08 | 0.08 | 93 | 1011.7 |
| 20260510161555 | 52 | 162 | 0.0 | 0.0 | 0.07 | 0.07 | 0.07 | 94 | 1011.7 |
| 20260510161052 | 52 | 173 | 0.0 | 0.0 | 0.00 | 0.06 | 0.06 | 94 | 1011.7 |
| 20260510160549 | 52 | 245 | 1.0 | 2.0 | 0.05 | 0.06 | 0.06 | 94 | 1011.7 |
| 20260510160048 | 52 | 161 | 1.0 | 1.0 | 0.00 | 0.05 | 0.05 | 95 | 1011.4 |
| 20260510155545 | 52 | 139 | 0.0 | 0.0 | 0.00 | 0.05 | 0.05 | 94 | 1011.4 |
| 20260510155042 | 53 | 170 | 0.0 | 0.0 | 0.07 | 0.05 | 0.05 | 95 | 1011.4 |
| 20260510154537 | 52 | 171 | 0.0 | 0.0 | 0.00 | 0.04 | 0.04 | 94 | 1011.7 |
| 20260510154033 | 52 | 173 | 0.0 | 1.0 | 0.00 | 0.04 | 0.04 | 94 | 1011.4 |
| 20260510153528 | 52 | 153 | 1.0 | 2.0 | 0.05 | 0.04 | 0.04 | 94 | 1011.4 |
| 20260510153025 | 52 | 135 | 1.0 | 2.0 | 0.05 | 0.04 | 0.04 | 94 | 1011.4 |
| 20260510152522 | 52 | 119 | 1.0 | 3.0 | 0.07 | 0.03 | 0.03 | 94 | 1011.4 |
| 20260510152018 | 52 | 173 | 3.0 | 3.0 | 0.00 | 0.02 | 0.02 | 94 | 1011.7 |
| 20260510151515 | 52 | 210 | 2.0 | 2.0 | 0.07 | 0.02 | 0.02 | 93 | 1011.7 |
| 20260510151013 | 52 | 194 | 4.0 | 4.0 | 0.12 | 0.02 | 0.02 | 93 | 1011.4 |
| 20260510150507 | 53 | 240 | 3.0 | 4.0 | 0.00 | 0.00 | 0.00 | 91 | 1011.7 |
| 20260510150004 | 53 | 239 | 3.0 | 3.0 | 0.00 | 0.00 | 0.00 | 90 | 1011.4 |
| 20260510145501 | 53 | 231 | 4.0 | 4.0 | 0.00 | 0.00 | 0.00 | 89 | 1010.9 |
| 20260510144956 | 53 | 184 | 1.0 | 1.0 | 0.00 | 0.00 | 0.00 | 90 | 1010.3 |
| 20260510144454 | 53 | 187 | 3.0 | 4.0 | 0.00 | 0.00 | 0.00 | 89 | 1010.6 |
| 20260510143949 | 53 | 169 | 4.0 | 4.0 | 0.00 | 0.00 | 0.00 | 89 | 1010.6 |
| 20260510143445 | 53 | 98 | 4.0 | 4.0 | 0.00 | 0.00 | 0.00 | 89 | 1010.6 |
| 20260510142942 | 53 | 143 | 4.0 | 6.0 | 0.00 | 0.00 | 0.00 | 89 | 1010.6 |
| 20260510142439 | 54 | 201 | 4.0 | 4.0 | 0.00 | 0.00 | 0.00 | 88 | 1010.6 |
| 20260510141935 | 54 | 169 | 2.0 | 3.0 | 0.00 | 0.00 | 0.00 | 87 | 1010.6 |
| 20260510141432 | 55 | 144 | 5.0 | 6.0 | 0.00 | 0.00 | 0.00 | 86 | 1010.9 |
| 20260510140929 | 55 | 197 | 4.0 | 4.0 | 0.00 | 0.00 | 0.00 | 86 | 1010.6 |
| 20260510140426 | 56 | 189 | 4.0 | 7.0 | 0.00 | 0.00 | 0.00 | 85 | 1010.6 |
| 20260510135924 | 55 | 160 | 4.0 | 6.0 | 0.00 | 0.00 | 0.00 | 86 | 1010.9 |
| 20260510135415 | 55 | 142 | 8.0 | 9.0 | 0.00 | 0.00 | 0.00 | 87 | 1010.9 |
| 20260510134913 | 54 | 195 | 2.0 | 4.0 | 0.00 | 0.00 | 0.00 | 90 | 1010.9 |
| 20260510134409 | 54 | 165 | 3.0 | 4.0 | 0.00 | 0.00 | 0.00 | 89 | 1010.6 |
| 20260510133905 | 53 | 155 | 2.0 | 3.0 | 0.00 | 0.00 | 0.00 | 90 | 1010.9 |
| 20260510133402 | 53 | 178 | 3.0 | 3.0 | 0.00 | 0.00 | 0.00 | 91 | 1010.9 |
| 20260510132857 | 52 | 171 | 1.0 | 2.0 | 0.00 | 0.00 | 0.00 | 92 | 1010.9 |
| 20260510132355 | 52 | 177 | 1.0 | 2.0 | 0.00 | 0.00 | 0.00 | 92 | 1010.9 |
| 20260510131852 | 52 | 188 | 1.0 | 2.0 | 0.00 | 0.00 | 0.00 | 91 | 1010.9 |
| 20260510131350 | 52 | 188 | 7.0 | 10.0 | 0.00 | 0.00 | 0.00 | 91 | 1010.9 |
| 20260510130846 | 52 | 180 | 0.0 | 1.0 | 0.00 | 0.00 | 0.00 | 92 | 1010.6 |
| 20260510130343 | 52 | 138 | 4.0 | 4.0 | 0.00 | 0.00 | 0.00 | 92 | 1010.6 |
| 20260510125840 | 52 | 162 | 2.0 | 3.0 | 0.00 | 0.00 | 0.00 | 92 | 1010.6 |
| 20260510125336 | 51 | 161 | 4.0 | 4.0 | 0.00 | 0.00 | 0.00 | 93 | 1010.6 |
| 20260510124834 | 50 | 200 | 4.0 | 6.0 | 0.00 | 0.00 | 0.00 | 94 | 1010.6 |
| 20260510124330 | 51 | 191 | 5.0 | 6.0 | 0.00 | 0.00 | 0.00 | 95 | 1010.6 |
| 20260510123826 | 50 | 192 | 6.0 | 8.0 | 0.00 | 0.00 | 0.00 | 95 | 1010.9 |
| 20260510123321 | 49 | 188 | 7.0 | 8.0 | 0.00 | 0.00 | 0.00 | 96 | 1010.9 |
| 20260510122818 | 49 | 156 | 5.0 | 8.0 | 0.00 | 0.00 | 0.00 | 97 | 1010.9 |
| 20260510122314 | 50 | 183 | 5.0 | 7.0 | 0.00 | 0.00 | 0.00 | 97 | 1010.6 |
| 20260510121810 | 50 | 206 | 4.0 | 4.0 | 0.00 | 0.00 | 0.00 | 97 | 1011.4 |
| 20260510121308 | 49 | 219 | 8.0 | 9.0 | 0.00 | 0.00 | 0.00 | 97 | 1010.9 |
| 20260510120805 | 49 | 204 | 5.0 | 6.0 | 0.00 | 0.00 | 0.00 | 97 | 1010.6 |
| 20260510120301 | 49 | 171 | 7.0 | 8.0 | 0.00 | 0.00 | 0.00 | 97 | 1010.9 |
| 20260510115757 | 49 | 265 | 3.0 | 4.0 | 0.00 | 0.00 | 0.00 | 98 | 1010.9 |
| 20260510115255 | 49 | 180 | 4.0 | 7.0 | 0.00 | 0.00 | 0.00 | 98 | 1010.9 |
| 20260510114756 | 49 | 186 | 7.0 | 8.0 | 0.00 | 0.00 | 0.00 | 98 | 1010.6 |
| 20260510114253 | 49 | 212 | 5.0 | 8.0 | 0.00 | 0.00 | 0.00 | 98 | 1010.6 |
| 20260510113748 | 49 | 181 | 4.0 | 4.0 | 0.00 | 0.00 | 0.00 | 98 | 1010.6 |
| 20260510113246 | 49 | 210 | 3.0 | 3.0 | 0.00 | 0.00 | 0.00 | 99 | 1010.6 |
| 20260510112742 | 49 | 187 | 3.0 | 6.0 | 0.00 | 0.00 | 0.00 | 99 | 1010.3 |
| 20260510112238 | 48 | 204 | 3.0 | 4.0 | 0.00 | 0.00 | 0.00 | 99 | 1010.3 |
| 20260510111734 | 48 | 201 | 4.0 | 4.0 | 0.00 | 0.00 | 0.00 | 99 | 1010.3 |
| 20260510111232 | 48 | 193 | 2.0 | 2.0 | 0.00 | 0.00 | 0.00 | 99 | 1010.3 |
| 20260510110731 | 48 | 207 | 5.0 | 7.0 | 0.00 | 0.00 | 0.00 | 99 | 1010.6 |
| 20260510110229 | 48 | 213 | 4.0 | 4.0 | 0.00 | 0.00 | 0.00 | 99 | 1010.3 |
| 20260510105728 | 48 | 185 | 2.0 | 2.0 | 0.00 | 0.00 | 0.00 | 99 | 1010.3 |
| 20260510105224 | 48 | 180 | 4.0 | 4.0 | 0.00 | 0.00 | 0.00 | 99 | 1010.3 |
| 20260510104720 | 48 | 158 | 4.0 | 4.0 | 0.00 | 0.00 | 0.00 | 99 | 1010.3 |
| 20260510104218 | 48 | 142 | 1.0 | 1.0 | 0.00 | 0.00 | 0.00 | 99 | 1010.3 |
| 20260510103714 | 48 | 162 | 0.0 | 0.0 | 0.00 | 0.00 | 0.00 | 99 | 1010.3 |
| 20260510103211 | 48 | 166 | 0.0 | 0.0 | 0.00 | 0.00 | 0.00 | 99 | 1009.9 |
| 20260510102711 | 48 | 178 | 0.0 | 0.0 | 0.00 | 0.00 | 0.00 | 99 | 1009.9 |
| 20260510102207 | 47 | 167 | 0.0 | 0.0 | 0.00 | 0.00 | 0.00 | 99 | 1009.9 |
| 20260510101705 | 48 | 128 | 0.0 | 1.0 | 0.00 | 0.00 | 0.00 | 99 | 1009.6 |
| 20260510101203 | 47 | 199 | 2.0 | 2.0 | 0.00 | 0.00 | 0.00 | 99 | 1009.6 |
| 20260510100658 | 47 | 167 | 1.0 | 1.0 | 0.00 | 0.00 | 0.00 | 99 | 1009.6 |
| 20260510100156 | 47 | 170 | 0.0 | 1.0 | 0.00 | 0.00 | 0.00 | 99 | 1009.6 |
| 20260510095652 | 47 | 166 | 1.0 | 1.0 | 0.00 | 0.00 | 0.00 | 99 | 1009.6 |
| 20260510095147 | 47 | 217 | 2.0 | 2.0 | 0.00 | 0.00 | 0.00 | 99 | 1009.6 |
| 20260510094646 | 47 | 187 | 2.0 | 2.0 | 0.00 | 0.00 | 0.00 | 99 | 1009.2 |
| 20260510094142 | 47 | 188 | 1.0 | 1.0 | 0.00 | 0.00 | 0.00 | 99 | 1009.2 |
| 20260510093638 | 47 | 172 | 2.0 | 3.0 | 0.00 | 0.00 | 0.00 | 99 | 1009.2 |
| 20260510093135 | 46 | 237 | 4.0 | 6.0 | 0.00 | 0.00 | 0.00 | 99 | 1008.9 |
| 20260510092632 | 46 | 200 | 3.0 | 3.0 | 0.00 | 0.00 | 0.00 | 99 | 1008.9 |
| 20260510092127 | 46 | 163 | 2.0 | 3.0 | 0.00 | 0.00 | 0.00 | 99 | 1008.9 |
| 20260510091623 | 46 | 196 | 2.0 | 3.0 | 0.00 | 0.00 | 0.00 | 99 | 1008.9 |
| 20260510091120 | 45 | 234 | 2.0 | 2.0 | 0.00 | 0.00 | 0.00 | 99 | 1008.9 |
| 20260510090617 | 45 | 174 | 0.0 | 0.0 | 0.00 | 0.00 | 0.00 | 99 | 1008.6 |
| 20260510090113 | 45 | 172 | 0.0 | 1.0 | 0.00 | 0.00 | 0.00 | 99 | 1008.9 |
| 20260510085608 | 46 | 97 | 1.0 | 2.0 | 0.00 | 0.00 | 0.00 | 99 | 1008.9 |
| 20260510085104 | 46 | 234 | 2.0 | 2.0 | 0.00 | 0.00 | 0.00 | 99 | 1008.9 |
| 20260510084600 | 47 | 134 | 1.0 | 1.0 | 0.00 | 0.00 | 0.00 | 99 | 1008.9 |
| 20260510084057 | 47 | 176 | 2.0 | 2.0 | 0.00 | 0.00 | 0.00 | 99 | 1009.2 |
| 20260510083553 | 47 | 246 | 2.0 | 2.0 | 0.00 | 0.00 | 0.00 | 99 | 1008.9 |
| 20260510083050 | 47 | 184 | 1.0 | 2.0 | 0.00 | 0.00 | 0.00 | 99 | 1009.2 |
| 20260510082547 | 47 | 179 | 2.0 | 2.0 | 0.00 | 0.00 | 0.00 | 99 | 1009.6 |
| 20260510082042 | 47 | 231 | 3.0 | 4.0 | 0.00 | 0.00 | 0.00 | 99 | 1009.6 |
| 20260510081537 | 47 | 217 | 2.0 | 2.0 | 0.00 | 0.00 | 0.00 | 99 | 1009.9 |
| 20260510081033 | 47 | 204 | 4.0 | 4.0 | 0.00 | 0.00 | 0.00 | 99 | 1009.9 |
| 20260510080532 | 47 | 216 | 2.0 | 3.0 | 0.00 | 0.00 | 0.00 | 99 | 1009.6 |
| 20260510080030 | 47 | 195 | 3.0 | 3.0 | 0.00 | 0.00 | 0.00 | 99 | 1009.6 |
| 20260510075527 | 47 | 193 | 2.0 | 2.0 | 0.00 | 0.00 | 0.00 | 99 | 1009.6 |
| 20260510075024 | 47 | 222 | 2.0 | 3.0 | 0.00 | 0.00 | 0.00 | 99 | 1009.6 |
| 20260510074522 | 47 | 195 | 5.0 | 6.0 | 0.00 | 0.00 | 0.00 | 99 | 1009.6 |
| 20260510074016 | 47 | 184 | 1.0 | 2.0 | 0.00 | 0.00 | 0.00 | 99 | 1009.6 |
| 20260510073513 | 47 | 189 | 2.0 | 3.0 | 0.00 | 0.00 | 0.00 | 99 | 1009.2 |
| 20260510073010 | 47 | 183 | 3.0 | 3.0 | 0.00 | 0.00 | 0.00 | 99 | 1009.6 |
| 20260510072506 | 46 | 168 | 1.0 | 2.0 | 0.00 | 0.00 | 0.00 | 99 | 1009.2 |
| 20260510072002 | 46 | 188 | 4.0 | 4.0 | 0.00 | 0.00 | 0.00 | 99 | 1009.2 |
| 20260510071458 | 45 | 192 | 2.0 | 2.0 | 0.00 | 0.00 | 0.00 | 99 | 1009.6 |
| 20260510070956 | 44 | 175 | 1.0 | 1.0 | 0.00 | 0.00 | 0.00 | 99 | 1009.6 |
| 20260510070453 | 44 | 169 | 1.0 | 1.0 | 0.00 | 0.00 | 0.00 | 99 | 1009.2 |
| 20260510065949 | 45 | 178 | 2.0 | 2.0 | 0.00 | 0.00 | 0.00 | 99 | 1009.2 |
| 20260510065446 | 45 | 151 | 0.0 | 0.0 | 0.00 | 0.00 | 0.00 | 99 | 1009.2 |
| 20260510064942 | 45 | 159 | 0.0 | 0.0 | 0.00 | 0.00 | 0.00 | 99 | 1009.6 |
| 20260510064440 | 45 | 182 | 2.0 | 2.0 | 0.00 | 0.00 | 0.00 | 99 | 1009.6 |
| 20260510063936 | 45 | 159 | 0.0 | 0.0 | 0.00 | 0.00 | 0.00 | 99 | 1009.6 |
| 20260510063432 | 45 | 165 | 0.0 | 0.0 | 0.00 | 0.00 | 0.00 | 99 | 1009.6 |
| 20260510062931 | 45 | 171 | 0.0 | 0.0 | 0.00 | 0.00 | 0.00 | 99 | 1009.6 |
| 20260510062430 | 45 | 154 | 0.0 | 0.0 | 0.00 | 0.00 | 0.00 | 99 | 1009.6 |
| 20260510061926 | 45 | 154 | 0.0 | 0.0 | 0.00 | 0.00 | 0.00 | 99 | 1009.6 |
| 20260510061423 | 45 | 112 | 1.0 | 1.0 | 0.00 | 0.00 | 0.00 | 99 | 1009.6 |
| 20260510060919 | 45 | 146 | 0.0 | 0.0 | 0.00 | 0.00 | 0.00 | 99 | 1009.6 |
| 20260510060416 | 45 | 160 | 0.0 | 0.0 | 0.00 | 0.00 | 0.00 | 99 | 1009.9 |
| 20260510055913 | 45 | 166 | 0.0 | 0.0 | 0.00 | 0.00 | 0.00 | 99 | 1009.2 |
| 20260510055408 | 45 | 159 | 0.0 | 0.0 | 0.00 | 0.00 | 0.00 | 99 | 1009.9 |
| 20260510054906 | 45 | 177 | 0.0 | 0.0 | 0.00 | 0.00 | 0.00 | 99 | 1009.6 |
| 20260510054402 | 45 | 144 | 0.0 | 0.0 | 0.00 | 0.00 | 0.00 | 99 | 1009.6 |
| 20260510053857 | 45 | 153 | 0.0 | 0.0 | 0.00 | 0.00 | 0.00 | 99 | 1009.6 |
| 20260510053353 | 45 | 142 | 0.0 | 0.0 | 0.00 | 0.00 | 0.00 | 99 | 1009.6 |
| 20260510052849 | 45 | 133 | 1.0 | 1.0 | 0.00 | 0.00 | 0.00 | 99 | 1009.6 |
| 20260510052345 | 45 | 170 | 0.0 | 0.0 | 0.00 | 0.00 | 0.00 | 99 | 1009.9 |
| 20260510051841 | 45 | 172 | 0.0 | 1.0 | 0.00 | 0.00 | 0.00 | 99 | 1009.6 |
| 20260510051338 | 45 | 156 | 0.0 | 0.0 | 0.00 | 0.00 | 0.00 | 99 | 1009.6 |
| 20260510050835 | 45 | 164 | 0.0 | 0.0 | 0.00 | 0.00 | 0.00 | 99 | 1009.6 |
| 20260510050332 | 45 | 153 | 0.0 | 1.0 | 0.00 | 0.00 | 0.00 | 99 | 1009.9 |
| 20260510045829 | 45 | 153 | 0.0 | 0.0 | 0.00 | 0.00 | 0.00 | 99 | 1009.9 |
| 20260510045326 | 45 | 110 | 1.0 | 1.0 | 0.00 | 0.00 | 0.00 | 99 | 1009.6 |
| 20260510044823 | 45 | 150 | 0.0 | 0.0 | 0.00 | 0.00 | 0.00 | 99 | 1010.3 |
| 20260510044319 | 45 | 150 | 3.0 | 4.0 | 0.00 | 0.00 | 0.00 | 99 | 1009.9 |
| 20260510043816 | 45 | 173 | 0.0 | 0.0 | 0.00 | 0.00 | 0.00 | 99 | 1010.3 |
| 20260510043312 | 45 | 180 | 1.0 | 1.0 | 0.00 | 0.00 | 0.00 | 99 | 1009.9 |
| 20260510042810 | 45 | 160 | 1.0 | 1.0 | 0.00 | 0.00 | 0.00 | 99 | 1009.9 |
| 20260510042307 | 45 | 164 | 3.0 | 3.0 | 0.00 | 0.00 | 0.00 | 99 | 1009.9 |
| 20260510041802 | 45 | 153 | 2.0 | 3.0 | 0.00 | 0.00 | 0.00 | 99 | 1009.9 |
| 20260510041259 | 45 | 117 | 1.0 | 1.0 | 0.00 | 0.00 | 0.00 | 99 | 1009.6 |
| 20260510040757 | 45 | 122 | 0.0 | 0.0 | 0.00 | 0.00 | 0.00 | 99 | 1010.3 |
| 20260510040248 | 45 | 158 | 1.0 | 1.0 | 0.00 | 0.00 | 0.00 | 99 | 1010.3 |
| 20260510035743 | 45 | 141 | 2.0 | 3.0 | 0.00 | 0.12 | 0.12 | 99 | 1009.9 |
| 20260510035239 | 44 | 97 | 1.0 | 1.0 | 0.00 | 0.12 | 0.12 | 99 | 1009.9 |
| 20260510034735 | 44 | 175 | 0.0 | 0.0 | 0.00 | 0.12 | 0.12 | 99 | 1009.9 |
| 20260510034233 | 44 | 177 | 0.0 | 0.0 | 0.00 | 0.12 | 0.12 | 99 | 1009.9 |
| 20260510033729 | 44 | 171 | 0.0 | 0.0 | 0.00 | 0.12 | 0.12 | 99 | 1009.9 |
| 20260510033227 | 44 | 83 | 2.0 | 2.0 | 0.00 | 0.12 | 0.12 | 99 | 1009.9 |
| 20260510032723 | 44 | 166 | 0.0 | 0.0 | 0.00 | 0.12 | 0.12 | 99 | 1009.9 |
| 20260510032219 | 44 | 178 | 2.0 | 2.0 | 0.00 | 0.12 | 0.12 | 99 | 1009.9 |
| 20260510031714 | 44 | 167 | 0.0 | 0.0 | 0.00 | 0.12 | 0.12 | 99 | 1010.3 |
| 20260510031210 | 44 | 126 | 1.0 | 1.0 | 0.00 | 0.12 | 0.12 | 99 | 1009.9 |
| 20260510030709 | 44 | 156 | 0.0 | 1.0 | 0.00 | 0.12 | 0.12 | 99 | 1010.3 |
| 20260510030208 | 44 | 239 | 1.0 | 1.0 | 0.00 | 0.12 | 0.12 | 99 | 1009.9 |
| 20260510025705 | 44 | 175 | 1.0 | 1.0 | 0.00 | 0.12 | 0.12 | 99 | 1010.3 |
| 20260510025202 | 44 | 155 | 0.0 | 0.0 | 0.00 | 0.12 | 0.12 | 99 | 1010.3 |
| 20260510024659 | 44 | 169 | 0.0 | 0.0 | 0.00 | 0.12 | 0.12 | 99 | 1010.3 |
| 20260510024155 | 44 | 168 | 0.0 | 0.0 | 0.00 | 0.12 | 0.12 | 99 | 1010.3 |
| 20260510023651 | 44 | 155 | 0.0 | 0.0 | 0.00 | 0.12 | 0.12 | 99 | 1010.3 |
| 20260510023148 | 44 | 145 | 0.0 | 0.0 | 0.00 | 0.12 | 0.12 | 99 | 1010.3 |
| 20260510022643 | 44 | 167 | 2.0 | 2.0 | 0.00 | 0.12 | 0.12 | 99 | 1010.3 |
| 20260510022138 | 44 | 125 | 0.0 | 1.0 | 0.00 | 0.12 | 0.12 | 99 | 1010.3 |
| 20260510021634 | 44 | 148 | 0.0 | 0.0 | 0.00 | 0.12 | 0.12 | 99 | 1010.3 |
| 20260510021131 | 44 | 145 | 0.0 | 1.0 | 0.00 | 0.12 | 0.12 | 99 | 1010.3 |
| 20260510020626 | 44 | 160 | 0.0 | 0.0 | 0.00 | 0.12 | 0.12 | 99 | 1010.3 |
| 20260510020121 | 44 | 168 | 0.0 | 0.0 | 0.00 | 0.12 | 0.12 | 99 | 1010.6 |
| 20260510015618 | 44 | 171 | 0.0 | 0.0 | 0.00 | 0.12 | 0.12 | 99 | 1010.9 |
| 20260510015114 | 44 | 169 | 0.0 | 0.0 | 0.00 | 0.12 | 0.12 | 99 | 1010.6 |
| 20260510014610 | 44 | 163 | 0.0 | 0.0 | 0.00 | 0.12 | 0.12 | 99 | 1010.6 |
| 20260510014108 | 44 | 174 | 0.0 | 0.0 | 0.00 | 0.12 | 0.12 | 99 | 1010.6 |
| 20260510013602 | 44 | 163 | 0.0 | 0.0 | 0.00 | 0.12 | 0.12 | 99 | 1010.6 |
| 20260510013058 | 44 | 169 | 0.0 | 1.0 | 0.00 | 0.12 | 0.12 | 99 | 1010.9 |
| 20260510012557 | 44 | 168 | 0.0 | 0.0 | 0.00 | 0.12 | 0.12 | 99 | 1010.6 |
| 20260510012054 | 44 | 146 | 1.0 | 1.0 | 0.00 | 0.12 | 0.12 | 99 | 1010.3 |
| 20260510011553 | 44 | 167 | 0.0 | 0.0 | 0.00 | 0.12 | 0.12 | 99 | 1010.6 |
| 20260510011050 | 44 | 172 | 0.0 | 0.0 | 0.00 | 0.12 | 0.12 | 99 | 1010.6 |
| 20260510010546 | 44 | 187 | 0.0 | 1.0 | 0.00 | 0.12 | 0.12 | 99 | 1010.6 |
| 20260510010044 | 44 | 151 | 0.0 | 0.0 | 0.00 | 0.12 | 0.12 | 99 | 1010.6 |
| 20260510005539 | 44 | 211 | 2.0 | 2.0 | 0.00 | 0.12 | 0.12 | 99 | 1010.6 |
| 20260510005037 | 44 | 161 | 0.0 | 0.0 | 0.00 | 0.12 | 0.12 | 99 | 1010.3 |
| 20260510004534 | 44 | 160 | 0.0 | 0.0 | 0.00 | 0.12 | 0.12 | 99 | 1010.3 |
| 20260510004032 | 44 | 167 | 0.0 | 0.0 | 0.00 | 0.12 | 0.12 | 99 | 1010.3 |
| 20260510003529 | 44 | 167 | 0.0 | 0.0 | 0.00 | 0.12 | 0.12 | 99 | 1010.3 |
| 20260510003024 | 44 | 166 | 0.0 | 0.0 | 0.00 | 0.12 | 0.12 | 99 | 1010.3 |
| 20260510002520 | 44 | 162 | 0.0 | 0.0 | 0.00 | 0.12 | 0.12 | 99 | 1010.3 |
| 20260510002017 | 44 | 170 | 0.0 | 0.0 | 0.00 | 0.12 | 0.12 | 99 | 1010.3 |
| 20260510001514 | 44 | 155 | 0.0 | 0.0 | 0.00 | 0.12 | 0.12 | 98 | 1010.3 |
| 20260510001012 | 44 | 148 | 0.0 | 0.0 | 0.07 | 0.12 | 0.12 | 98 | 1009.9 |
| 20260510000512 | 44 | 161 | 0.0 | 0.0 | 0.07 | 0.12 | 0.12 | 98 | 1010.3 |
| 20260510000010 | 44 | 149 | 0.0 | 0.0 | 0.00 | 0.11 | 0.11 | 98 | 1009.9 |
| 20260509235507 | 44 | 153 | 0.0 | 0.0 | 0.00 | 0.11 | 0.11 | 98 | 1009.6 |
| 20260509235003 | 44 | 107 | 1.0 | 1.0 | 0.00 | 0.11 | 0.11 | 98 | 1009.9 |
| 20260509234459 | 44 | 145 | 0.0 | 0.0 | 0.00 | 0.11 | 0.11 | 98 | 1009.6 |
| 20260509233957 | 44 | 89 | 2.0 | 2.0 | 0.00 | 0.11 | 0.11 | 97 | 1009.9 |
| 20260509233454 | 44 | 171 | 0.0 | 0.0 | 0.00 | 0.11 | 0.11 | 97 | 1009.9 |
| 20260509232950 | 44 | 157 | 0.0 | 0.0 | 0.00 | 0.11 | 0.11 | 97 | 1009.9 |
| 20260509232448 | 44 | 145 | 1.0 | 2.0 | 0.00 | 0.11 | 0.11 | 97 | 1009.9 |
| 20260509231944 | 44 | 225 | 3.0 | 3.0 | 0.00 | 0.11 | 0.11 | 97 | 1009.6 |
| 20260509231441 | 44 | 168 | 0.0 | 0.0 | 0.00 | 0.11 | 0.11 | 97 | 1009.9 |
| 20260509230939 | 44 | 135 | 1.0 | 1.0 | 0.00 | 0.11 | 0.11 | 96 | 1009.9 |
| 20260509230435 | 44 | 143 | 1.0 | 1.0 | 0.00 | 0.11 | 0.11 | 96 | 1009.9 |
| 20260509225931 | 44 | 134 | 1.0 | 1.0 | 0.00 | 0.11 | 0.11 | 96 | 1009.6 |
| 20260509225428 | 44 | 176 | 4.0 | 4.0 | 0.00 | 0.11 | 0.11 | 96 | 1009.9 |
| 20260509224924 | 44 | 132 | 1.0 | 2.0 | 0.00 | 0.11 | 0.11 | 95 | 1009.9 |
| 20260509224420 | 45 | 175 | 2.0 | 2.0 | 0.00 | 0.11 | 0.11 | 95 | 1009.9 |
| 20260509223917 | 45 | 178 | 1.0 | 2.0 | 0.00 | 0.11 | 0.11 | 95 | 1009.6 |
| 20260509223414 | 45 | 215 | 2.0 | 2.0 | 0.05 | 0.11 | 0.11 | 94 | 1009.9 |
| 20260509222911 | 45 | 169 | 0.0 | 0.0 | 0.05 | 0.11 | 0.11 | 94 | 1009.9 |
| 20260509222406 | 46 | 168 | 1.0 | 1.0 | 0.00 | 0.10 | 0.10 | 94 | 1010.3 |
| 20260509221902 | 45 | 157 | 0.0 | 1.0 | 0.00 | 0.10 | 0.10 | 94 | 1010.3 |
| 20260509221359 | 45 | 168 | 6.0 | 8.0 | 0.00 | 0.10 | 0.10 | 94 | 1009.9 |
| 20260509220855 | 45 | 178 | 2.0 | 2.0 | 0.00 | 0.10 | 0.10 | 94 | 1009.9 |
| 20260509220351 | 45 | 195 | 4.0 | 4.0 | 0.00 | 0.10 | 0.10 | 94 | 1010.3 |
| 20260509215847 | 45 | 140 | 4.0 | 4.0 | 0.00 | 0.10 | 0.10 | 94 | 1010.3 |
| 20260509215343 | 45 | 192 | 3.0 | 3.0 | 0.00 | 0.10 | 0.10 | 94 | 1010.3 |
| 20260509214840 | 45 | 163 | 2.0 | 3.0 | 0.00 | 0.10 | 0.10 | 94 | 1010.3 |
| 20260509214338 | 46 | 160 | 0.0 | 1.0 | 0.00 | 0.10 | 0.10 | 94 | 1009.9 |
| 20260509213835 | 45 | 175 | 1.0 | 2.0 | 0.00 | 0.10 | 0.10 | 94 | 1010.3 |
| 20260509213330 | 45 | 149 | 2.0 | 2.0 | 0.00 | 0.10 | 0.10 | 94 | 1010.3 |
| 20260509212828 | 45 | 146 | 2.0 | 3.0 | 0.00 | 0.10 | 0.10 | 94 | 1010.3 |
| 20260509212326 | 45 | 170 | 0.0 | 0.0 | 0.00 | 0.10 | 0.10 | 94 | 1010.3 |
| 20260509211821 | 45 | 147 | 2.0 | 2.0 | 0.00 | 0.10 | 0.10 | 94 | 1010.3 |
| 20260509211317 | 45 | 182 | 1.0 | 1.0 | 0.00 | 0.10 | 0.10 | 94 | 1010.3 |
| 20260509210814 | 45 | 202 | 2.0 | 3.0 | 0.00 | 0.10 | 0.10 | 94 | 1010.3 |
| 20260509210312 | 45 | 191 | 3.0 | 3.0 | 0.00 | 0.10 | 0.10 | 94 | 1010.3 |
| 20260509205811 | 45 | 180 | 1.0 | 1.0 | 0.00 | 0.10 | 0.10 | 94 | 1010.3 |
| 20260509205307 | 45 | 173 | 1.0 | 2.0 | 0.00 | 0.10 | 0.10 | 94 | 1010.3 |
| 20260509204802 | 45 | 181 | 4.0 | 4.0 | 0.00 | 0.10 | 0.10 | 94 | 1010.6 |
| 20260509204258 | 45 | 166 | 1.0 | 2.0 | 0.00 | 0.10 | 0.10 | 94 | 1010.6 |
| 20260509203755 | 45 | 173 | 0.0 | 0.0 | 0.00 | 0.10 | 0.10 | 94 | 1010.3 |
| 20260509203252 | 45 | 160 | 2.0 | 2.0 | 0.00 | 0.10 | 0.10 | 94 | 1010.3 |
| 20260509202748 | 45 | 183 | 1.0 | 1.0 | 0.00 | 0.10 | 0.10 | 94 | 1010.6 |
| 20260509202244 | 45 | 169 | 0.0 | 0.0 | 0.00 | 0.10 | 0.10 | 94 | 1010.6 |
| 20260509201739 | 45 | 193 | 1.0 | 1.0 | 0.00 | 0.10 | 0.10 | 94 | 1010.6 |
| 20260509201236 | 44 | 166 | 2.0 | 2.0 | 0.00 | 0.10 | 0.10 | 94 | 1010.6 |
| 20260509200732 | 44 | 193 | 3.0 | 3.0 | 0.00 | 0.10 | 0.10 | 94 | 1010.3 |
| 20260509200227 | 45 | 182 | 1.0 | 2.0 | 0.00 | 0.10 | 0.10 | 94 | 1010.9 |
| 20260509195723 | 44 | 161 | 1.0 | 1.0 | 0.07 | 0.10 | 0.10 | 94 | 1010.9 |
| 20260509195218 | 44 | 150 | 4.0 | 6.0 | 0.07 | 0.10 | 0.10 | 94 | 1010.6 |
| 20260509194713 | 44 | 162 | 0.0 | 0.0 | 0.00 | 0.09 | 0.09 | 94 | 1010.9 |
| 20260509194210 | 45 | 171 | 0.0 | 0.0 | 0.00 | 0.09 | 0.09 | 94 | 1010.9 |
| 20260509193707 | 44 | 169 | 1.0 | 1.0 | 0.00 | 0.09 | 0.09 | 94 | 1010.9 |
| 20260509193206 | 44 | 201 | 3.0 | 3.0 | 0.05 | 0.09 | 0.09 | 94 | 1010.9 |
| 20260509192703 | 44 | 154 | 1.0 | 1.0 | 0.05 | 0.09 | 0.09 | 94 | 1010.9 |
| 20260509192158 | 44 | 193 | 3.0 | 3.0 | 0.00 | 0.08 | 0.08 | 93 | 1010.9 |
| 20260509191654 | 44 | 181 | 2.0 | 2.0 | 0.00 | 0.08 | 0.08 | 93 | 1010.9 |
| 20260509191150 | 44 | 197 | 5.0 | 6.0 | 0.00 | 0.08 | 0.08 | 93 | 1010.9 |
| 20260509190646 | 44 | 163 | 3.0 | 3.0 | 0.00 | 0.08 | 0.08 | 93 | 1010.9 |